Ireland METAR reports

 

EIDW - Dublin Airport, Ireland
Distance from station: WNW 13km
Updated: 21/10/2019 13:30
Partly cloudy
Partly cloudy
 Wind from WNW
Wind: WNW 9 km/h
Temperature: 10°C
Wind Chill: 9°C
Dew Point: 4°C
Humidity: 67%
Barometer: 1024 hPa
Clouds: Partly cloudy
Visibility: 10 km
Cloud details: Few Clouds 640 m
Partly cloudy 7620 m
2019/10/21 12:30 EIDW 211230Z 29005KT 250V340 9999 FEW021 SCT250 10/04 Q1024 NOSIG
EIME - Casement (mil), Ireland
Distance from station: WSW 26km
Updated: 21/10/2019 13:30
Partly cloudy
Partly cloudy
 Wind from W
Wind: W 11 km/h
Temperature: 10°C
Wind Chill: 8°C
Dew Point: 6°C
Humidity: 76%
Barometer: 1024 hPa
Clouds: Partly cloudy
Visibility: 10 km
Cloud details: Few Clouds 762 m
Partly cloudy 7620 m
2019/10/21 12:30 EIME 211230Z 27006KT 9999 FEW025 SCT250 10/06 Q1024
 
EGAC - Belfast Harbour, United Kingdom
Distance from station: N 140km
Updated: 21/10/2019 13:20
Few Clouds
Few Clouds
 Wind from varies
Wind: varies 6 km/h
Temperature: 11°C
Dew Point: 4°C
Humidity: 62%
Barometer: 1024 hPa
Clouds: Few Clouds
Visibility: 10 km
Cloud details: Few Clouds 1036 m
2019/10/21 12:20 EGAC 211220Z VRB03KT 9999 FEW034 11/04 Q1024
EGAA - Belfast/Aldergro, United Kingdom
Distance from station: N 141km
Updated: 21/10/2019 13:20
Few Clouds
Few Clouds
 Wind from W
Wind: W 9 km/h
Temperature: 10°C
Wind Chill: 9°C
Dew Point: 5°C
Humidity: 71%
Barometer: 1024 hPa
Clouds: Few Clouds
Visibility: 10 km
Cloud details: Few Clouds 1128 m
2019/10/21 12:20 EGAA 211220Z 27005KT 9999 FEW037 10/05 Q1024
 
EIWF - Waterford Arpt, Ireland
Distance from station: SSW 148km
Updated: 21/10/2019 13:30
Clear
Clear
 Wind from NNE
Wind: NNE 11 km/h
Temperature: 12°C
Dew Point: 6°C
Humidity: 67%
Barometer: 1024 hPa
Summary: Clear
Visibility: greater than 10 km
2019/10/21 12:30 EIWF 211230Z 03006KT 350V060 CAVOK 12/06 Q1024
EIKN - Connaught Apt, Ireland
Distance from station: WNW 191km
Updated: 21/10/2019 13:30
Mostly cloudy
Mostly cloudy
 Wind from SW
Wind: SW 6 km/h
Temperature: 9°C
Dew Point: 3°C
Humidity: 66%
Barometer: 1025 hPa
Clouds: Mostly cloudy
Visibility: 10 km
Cloud details: Mostly cloudy 853 m
2019/10/21 12:30 EIKN 211230Z 23003KT 9999 BKN028 09/03 Q1025 NOSIG
 
EISG - Sligo Arpt, Ireland
Distance from station: WNW 195km
Updated: 21/10/2019 13:30
Overcast
Overcast
 Wind from SSE
Wind: SSE 7 km/h
Temperature: 10°C
Wind Chill: 9°C
Dew Point: 4°C
Humidity: 67%
Barometer: 1025 hPa
Clouds: Overcast
Visibility: 10 km
Cloud details: Overcast 1128 m
2019/10/21 12:30 EISG 211230Z 15004KT 100V220 9999 OVC037 10/04 Q1025
EGAE - Eglinton/Londond, United Kingdom
Distance from station: NNW 198km
Updated: 21/10/2019 13:20
Overcast
Overcast
 Wind from WSW
Wind: WSW 15 km/h
Temperature: 10°C
Wind Chill: 8°C
Dew Point: 5°C
Humidity: 71%
Barometer: 1024 hPa
Clouds: Overcast
Visibility: 10 km
Cloud details: Overcast 1006 m
2019/10/21 12:20 EGAE 211220Z 24008KT 9999 OVC033 10/05 Q1024
 
EINN - Shannon Airport, Ireland
Distance from station: WSW 204km
Updated: 21/10/2019 13:30
Partly cloudy
Partly cloudy
 Wind from ENE
Wind: ENE 4 km/h
Temperature: 11°C
Dew Point: 5°C
Humidity: 67%
Barometer: 1025 hPa
Clouds: Partly cloudy
Visibility: 10 km
Cloud details: Few Clouds 762 m
Partly cloudy 6096 m
2019/10/21 12:30 EINN 211230Z 07002KT 9999 FEW025 SCT200 11/05 Q1025 NOSIG
EICK - Cork Arpt/Corcai, Ireland
Distance from station: SW 234km
Updated: 21/10/2019 13:30
Few Clouds
Few Clouds
 Wind from N
Wind: N 11 km/h
Temperature: 11°C
Dew Point: 5°C
Humidity: 67%
Barometer: 1025 hPa
Clouds: Few Clouds
Visibility: 10 km
Cloud details: Few Clouds 762 m
2019/10/21 12:30 EICK 211230Z 36006KT 320V030 9999 FEW025 11/05 Q1025 NOSIG